Hauptseite
METAR-TAF:

METAR-TAF

Flughäfen :

Militärflugplatz Deelen

Arnheim, Niederlande

Breite: 52-04N, Länge: 005-53E, Höhe: 48 m

Beobachtung

Neuester Wetterbericht von vor 27 Minuten, um 07:25 UTC
Wind 10 kt aus Südwest, variierte zwischen Süd und West
Temperatur 12°C
Luftfeuchtigkeit 88%
Luftdruck 1018 hPa
Sichtweite 10 km oder mehr
Geschlossene Wolkendecke in der Höhe von 19000 ft

METAR: EHDL 220725Z AUTO 22010KT 180V270 9999 OVC190 12/10 Q1018 BLU

Zeit: 09:52 (07:52 UTC)


TAF: fehlend

Wetterbeobachtungen und Prognosen von mehr als 4000 Flughäfen (METAR und TAF Bericht).

Die verfügbaren Stationen werden durch gelbe und rote Markierungen auf der Karte dargestellt.

Führen Sie die Maus auf sie, um den Namen der Station zu sehen.

Darauf klicken, um die Beobachtung von Wetterbeobachtungen und Prognosen zu sehen.

Um die Karte zu ändern : klicken Sie auf den grünen Tasten mit einem schwarzen Kreuz Zum Vergrößern, auf den grünen Button mit einem Gedankenstrich zu verkleinern, oder auf die grünen Pfeile für benachbarte Karten.


METAR-TAF: